Aérodrome :
LOGIN :

S'inscrire | Disclaimer

   EN    FR    IT 

 










Légende :    VFR   VFR Marginal   IFR   IFR Intensif   IFR Très Intensif
Visi : 
Plafond : 
>= 8 km
>= 3000ft
5 à 8 km
1000 à 3000 ft
1500m à 5 km
500 à 1000 ft
800 à 1500m
200 à 500 ft
< 800m
< 200 ft
Symboles :   Orages  Brouillard  Fortes neiges  Fortes précipitations  Vent > 20 kt
SIGMETs :   Divers  Orages  Givrage  Turbulence  Onde Orograph.  Cendres Volcan.







- Altitude de l'aérodrome : 913 ft
- Voir les cartes d'approche


LFSX - Luxeuil

DERNIER METAR :
  • 251800Z AUTO 34008KT 310V010 9999 -RA BKN030 OVC037 04/03 Q1008 TEMPO 3000 RA OVC007

METARs EXPIRÉS :
  • 251730Z AUTO 34008KT 310V020 9000 RA BKN028/// OVC043/// ///TCU 05/03 Q1008 TEMPO 3000 RA OVC007
  • 251700Z AUTO 34007KT 280V060 8000 RA BKN028 OVC037 06/03 Q1008 TEMPO 3000 RA OVC007
  • 251630Z AUTO 35007KT 310V020 9999 -RA FEW014 BKN031 OVC039 07/04 Q1008 TEMPO 3000 RA OVC007
  • 251600Z AUTO 35008KT 9999 -RA FEW014/// SCT038/// BKN046/// ///TCU 07/05 Q1008 BECMG 4900 -RA BKN013
  • 251530Z AUTO 36006KT 310V030 9999 -RA SCT015 BKN040 OVC046 08/05 Q1008 BECMG 4900 -RA BKN013

TAF TAF LFSX
Valide du 25 à 15h jusqu'au 26 à 15h UTC


251400Z 2515/2615 36013KT 9999 BKN025 OVC040
BECMG 2516/2518 4900 -RA BKN013
TEMPO 2518/2603 3000 RA OVC007
BECMG 2603/2606 9999 NSW BKN015
TEMPO 2610/2615 3500 SHRA SCT018TCU
PROB30
TEMPO 2612/2615 2500 -SHGS FEW015CB
Pas de NOTAMs connus pour ce terrain.



MET'MAP, la Météo Aéronautique d'un coup d'oeil ! - Copyright ORBIFLY Décembre 2007 - Disclaimer

ORBIFLY MET'MAP TEAM :

Programmation & Développement : Alexandra Zaïnal
Conception & Développement : Baudouin d'Aumeries
Co-Programmation & Développement : Marc-Olivier Méhu
Soutien technique & logistique : Manuel Goepfert

Contact : metmap@orbifly.com




SOURCES & CREDITS :

   NOAA